createdAt,value
2023-04-11T00:00:36.104Z,11.17
2023-04-11T00:03:02.707Z,11.17
2023-04-11T00:05:32.726Z,11.23
2023-04-11T00:07:59.205Z,11.22
2023-04-11T00:10:25.695Z,11.23
2023-04-11T00:12:56.349Z,11.25
2023-04-11T00:15:26.869Z,11.24
2023-04-11T00:17:53.895Z,11.17
2023-04-11T00:20:21.103Z,11.00
2023-04-11T00:22:47.753Z,10.87
2023-04-11T00:25:15.291Z,10.66
2023-04-11T00:27:41.690Z,10.63
2023-04-11T00:30:08.443Z,10.63
2023-04-11T00:32:34.893Z,10.50
2023-04-11T00:35:01.815Z,10.47
2023-04-11T00:37:28.334Z,10.50
2023-04-11T00:39:56.137Z,10.36
2023-04-11T00:42:22.896Z,10.37
2023-04-11T00:44:50.776Z,10.44
2023-04-11T00:47:18.242Z,10.43
2023-04-11T00:49:45.687Z,10.42
2023-04-11T00:52:13.648Z,10.43
2023-04-11T00:54:40.311Z,10.38
2023-04-11T00:57:07.828Z,10.39
2023-04-11T00:59:35.155Z,10.43
2023-04-11T01:02:01.964Z,10.54
2023-04-11T01:04:55.099Z,10.52
2023-04-11T01:07:23.157Z,10.44
2023-04-11T01:09:49.966Z,10.48
2023-04-11T01:12:17.380Z,10.33
2023-04-11T01:14:47.678Z,10.40
2023-04-11T01:17:15.376Z,10.37
2023-04-11T01:19:42.628Z,10.32
2023-04-11T01:22:10.874Z,10.31
2023-04-11T01:24:37.614Z,10.31
2023-04-11T01:27:04.320Z,10.36
2023-04-11T01:29:31.688Z,10.40
2023-04-11T01:31:58.300Z,10.34
2023-04-11T01:34:28.197Z,10.33
2023-04-11T01:36:54.969Z,10.35
2023-04-11T01:39:21.452Z,10.32
2023-04-11T01:41:48.912Z,10.14
2023-04-11T01:44:15.708Z,10.02
2023-04-11T01:46:43.235Z,9.87
2023-04-11T01:49:09.805Z,9.82
2023-04-11T01:51:36.328Z,9.90
2023-04-11T01:54:02.732Z,9.98
2023-04-11T01:56:29.183Z,9.98
2023-04-11T01:58:58.905Z,10.01
2023-04-11T02:01:25.664Z,9.88
2023-04-11T02:03:52.294Z,9.84
2023-04-11T02:06:18.832Z,9.81
2023-04-11T02:08:45.365Z,9.73
2023-04-11T02:11:11.833Z,9.63
2023-04-11T02:13:38.372Z,9.50
2023-04-11T02:16:14.940Z,9.49
2023-04-11T02:18:43.284Z,9.46
2023-04-11T02:21:10.152Z,9.39
2023-04-11T02:23:37.308Z,9.41
2023-04-11T02:26:05.733Z,9.42
2023-04-11T02:28:32.341Z,9.32
2023-04-11T02:30:59.168Z,9.32
2023-04-11T02:33:26.175Z,9.34
2023-04-11T02:35:52.674Z,9.32
2023-04-11T02:38:20.986Z,9.29
2023-04-11T02:40:47.570Z,9.30
2023-04-11T02:43:14.169Z,9.28
2023-04-11T02:45:41.296Z,9.32
2023-04-11T02:48:08.330Z,9.23
2023-04-11T02:50:40.936Z,9.19
2023-04-11T02:53:07.752Z,9.17
2023-04-11T02:55:36.758Z,9.14
2023-04-11T02:58:03.275Z,9.20
2023-04-11T03:00:29.926Z,9.25
2023-04-11T03:03:02.980Z,9.30
2023-04-11T03:05:33.893Z,9.28
2023-04-11T03:08:00.412Z,9.25
2023-04-11T03:10:30.900Z,9.25
2023-04-11T03:12:58.831Z,9.30
2023-04-11T03:15:25.379Z,9.34
2023-04-11T03:17:51.873Z,9.29
2023-04-11T03:20:19.623Z,9.31
2023-04-11T03:22:49.433Z,9.25
2023-04-11T03:25:17.581Z,9.27
2023-04-11T03:27:46.270Z,9.27
2023-04-11T03:30:14.311Z,9.21
2023-04-11T03:32:42.815Z,9.24
2023-04-11T03:35:10.908Z,9.30
2023-04-11T03:37:41.004Z,9.22
2023-04-11T03:40:10.759Z,9.17
2023-04-11T03:42:40.760Z,9.22
2023-04-11T03:45:10.748Z,9.13
2023-04-11T03:47:38.396Z,9.07
2023-04-11T03:50:06.598Z,9.14
2023-04-11T03:52:38.942Z,9.13
2023-04-11T03:55:10.604Z,9.18
2023-04-11T03:57:37.956Z,9.21
2023-04-11T04:00:07.926Z,9.21
2023-04-11T04:02:41.848Z,9.22
2023-04-11T04:05:11.622Z,9.24
2023-04-11T04:07:39.920Z,9.17
2023-04-11T04:10:13.387Z,9.18
2023-04-11T04:12:41.848Z,9.12
2023-04-11T04:15:14.933Z,9.06
2023-04-11T04:17:44.064Z,9.06
2023-04-11T04:20:17.265Z,9.12
2023-04-11T04:22:49.351Z,9.01
2023-04-11T04:25:20.618Z,8.97
2023-04-11T04:27:48.971Z,8.94
2023-04-11T04:30:15.782Z,8.91
2023-04-11T04:33:01.500Z,8.92
2023-04-11T04:35:30.091Z,8.93
2023-04-11T04:38:06.048Z,8.91
2023-04-11T04:40:58.524Z,8.92
2023-04-11T04:43:27.123Z,8.37
2023-04-11T04:46:05.629Z,7.61
2023-04-11T04:48:40.008Z,7.33
2023-04-11T04:51:07.658Z,7.11
2023-04-11T04:53:38.790Z,6.80
2023-04-11T04:56:07.296Z,6.59
2023-04-11T04:58:38.001Z,6.50
2023-04-11T05:01:09.080Z,6.44
2023-04-11T05:03:38.693Z,6.30
2023-04-11T05:06:09.689Z,6.24
2023-04-11T05:08:37.328Z,6.20
2023-04-11T05:11:06.384Z,6.14
2023-04-11T05:13:34.140Z,6.28
2023-04-11T05:16:02.336Z,6.33
2023-04-11T05:18:30.564Z,6.19
2023-04-11T05:20:57.543Z,6.10
2023-04-11T05:23:29.932Z,6.00
2023-04-11T05:25:59.953Z,5.80
2023-04-11T05:28:26.704Z,5.71
2023-04-11T05:30:53.777Z,5.77
2023-04-11T05:33:23.256Z,5.59
2023-04-11T05:35:50.086Z,5.49
2023-04-11T05:38:17.496Z,5.54
2023-04-11T05:40:43.905Z,5.60
2023-04-11T05:43:13.483Z,5.66
2023-04-11T05:45:47.460Z,5.62
2023-04-11T05:48:16.241Z,5.62
2023-04-11T05:50:42.959Z,5.56
2023-04-11T05:53:09.484Z,5.53
2023-04-11T05:55:36.592Z,5.53
2023-04-11T05:58:03.287Z,5.40
2023-04-11T06:00:31.671Z,5.27
2023-04-11T06:03:00.012Z,5.27
2023-04-11T06:05:26.831Z,5.22
2023-04-11T06:07:53.435Z,5.11
2023-04-11T06:10:20.037Z,5.12
2023-04-11T06:12:46.472Z,5.20
2023-04-11T06:15:13.867Z,5.19
2023-04-11T06:17:40.403Z,5.24
2023-04-11T06:20:08.349Z,5.24
2023-04-11T06:22:34.773Z,5.27
2023-04-11T06:25:01.237Z,5.22
2023-04-11T06:27:27.868Z,5.21
2023-04-11T06:29:54.344Z,5.29
2023-04-11T06:32:21.655Z,5.24
2023-04-11T06:34:48.088Z,5.26
2023-04-11T06:37:14.949Z,5.35
2023-04-11T06:39:41.370Z,5.49
2023-04-11T06:42:07.815Z,5.53
2023-04-11T06:44:34.574Z,5.52
2023-04-11T06:47:01.443Z,5.40
2023-04-11T06:49:31.291Z,5.57
2023-04-11T06:51:59.329Z,5.74
2023-04-11T06:54:25.909Z,5.54
2023-04-11T06:56:52.441Z,5.60
2023-04-11T06:59:20.491Z,5.59
2023-04-11T07:01:47.564Z,5.57
2023-04-11T07:04:14.207Z,5.65
2023-04-11T07:06:40.803Z,5.69
2023-04-11T07:09:07.457Z,5.53
2023-04-11T07:11:33.920Z,5.49
2023-04-11T07:14:00.723Z,5.64
2023-04-11T07:16:27.409Z,5.69
2023-04-11T07:18:54.788Z,5.61
2023-04-11T07:21:21.339Z,5.53
2023-04-11T07:23:48.256Z,5.49
2023-04-11T07:26:16.845Z,5.51
2023-04-11T07:28:44.928Z,5.53
2023-04-11T07:31:12.661Z,5.66
2023-04-11T07:33:42.461Z,5.80
2023-04-11T07:36:09.565Z,5.93
2023-04-11T07:38:37.607Z,5.92
2023-04-11T07:41:05.265Z,5.92
2023-04-11T07:43:32.049Z,6.00
2023-04-11T07:45:58.842Z,6.00
2023-04-11T07:48:28.003Z,5.98
2023-04-11T07:50:55.277Z,6.04
2023-04-11T07:53:22.520Z,6.03
2023-04-11T07:55:49.023Z,6.18
2023-04-11T07:58:15.665Z,6.08
2023-04-11T08:00:42.097Z,6.04
2023-04-11T08:03:10.281Z,6.06
2023-04-11T08:05:37.926Z,6.18
2023-04-11T08:08:04.975Z,6.30
2023-04-11T08:10:31.940Z,6.18
2023-04-11T08:12:58.738Z,6.28
2023-04-11T08:15:26.417Z,6.39
2023-04-11T08:17:56.487Z,6.48
2023-04-11T08:20:24.019Z,6.67
2023-04-11T08:22:50.575Z,6.72
2023-04-11T08:25:22.669Z,6.82
2023-04-11T08:27:50.775Z,6.97
2023-04-11T08:30:17.814Z,6.98
2023-04-11T08:32:44.532Z,7.12
2023-04-11T08:35:11.276Z,7.37
2023-04-11T08:37:37.880Z,7.58
2023-04-11T08:40:06.912Z,7.45
2023-04-11T08:42:34.249Z,7.64
2023-04-11T08:45:08.627Z,7.69
2023-04-11T08:47:36.429Z,7.62
2023-04-11T08:50:03.926Z,7.68
2023-04-11T08:52:30.968Z,7.66
2023-04-11T08:54:57.375Z,7.69
2023-04-11T08:57:31.413Z,7.86
2023-04-11T09:00:00.686Z,7.75
2023-04-11T09:02:27.761Z,7.45
2023-04-11T09:04:54.963Z,7.36
2023-04-11T09:07:22.110Z,7.33
2023-04-11T09:09:48.557Z,7.60
2023-04-11T09:12:15.257Z,7.80
2023-04-11T09:14:42.029Z,7.83
2023-04-11T09:17:15.905Z,7.87
2023-04-11T09:19:42.416Z,7.74
2023-04-11T09:22:09.122Z,7.84
2023-04-11T09:24:36.646Z,7.73
2023-04-11T09:27:15.657Z,7.57
2023-04-11T09:29:48.821Z,8.11
2023-04-11T09:32:32.677Z,8.07
2023-04-11T09:35:16.533Z,8.28
2023-04-11T09:37:44.975Z,8.31
2023-04-11T09:40:12.072Z,8.24
2023-04-11T09:42:38.943Z,8.13
2023-04-11T09:45:06.137Z,7.91
2023-04-11T09:47:33.564Z,8.15
2023-04-11T09:50:00.361Z,8.70
2023-04-11T09:52:27.215Z,8.99
2023-04-11T09:54:54.412Z,9.32
2023-04-11T09:57:22.671Z,9.11
2023-04-11T09:59:49.845Z,9.06
2023-04-11T10:02:16.318Z,9.21
2023-04-11T10:04:43.217Z,9.21
2023-04-11T10:07:14.180Z,9.19
2023-04-11T10:09:43.061Z,9.45
2023-04-11T10:12:09.512Z,9.49
2023-04-11T10:14:38.784Z,9.16
2023-04-11T10:17:21.928Z,9.16
2023-04-11T10:19:56.352Z,8.95
2023-04-11T10:22:43.917Z,9.17
2023-04-11T10:25:20.990Z,9.36
2023-04-11T10:27:49.259Z,9.41
2023-04-11T10:30:16.185Z,9.68
2023-04-11T10:33:21.210Z,9.60
2023-04-11T10:35:58.148Z,9.32
2023-04-11T10:38:36.816Z,9.22
2023-04-11T10:41:28.502Z,9.39
2023-04-11T10:44:24.919Z,9.67
2023-04-11T10:46:55.962Z,9.59
2023-04-11T10:49:39.318Z,9.83
2023-04-11T10:52:21.340Z,10.14
2023-04-11T10:54:52.286Z,9.97
2023-04-11T10:57:19.552Z,10.16
2023-04-11T10:59:51.961Z,9.89
2023-04-11T11:02:21.927Z,10.07
2023-04-11T11:04:49.363Z,9.86
2023-04-11T11:07:17.312Z,9.80
2023-04-11T11:09:49.117Z,10.05
2023-04-11T11:12:17.026Z,10.11
2023-04-11T11:14:45.623Z,10.22
2023-04-11T11:17:13.637Z,10.41
2023-04-11T11:19:48.061Z,10.31
2023-04-11T11:22:16.189Z,10.39
2023-04-11T11:24:42.653Z,10.71
2023-04-11T11:27:22.476Z,10.60
2023-04-11T11:29:48.948Z,10.69
2023-04-11T11:32:28.687Z,10.64
2023-04-11T11:34:57.338Z,10.74
2023-04-11T11:37:23.891Z,10.90
2023-04-11T11:39:51.235Z,10.64
2023-04-11T11:42:18.103Z,10.89
2023-04-11T11:44:44.562Z,10.87
2023-04-11T11:47:15.400Z,10.79
2023-04-11T11:49:53.153Z,10.75
2023-04-11T11:52:36.736Z,10.75
2023-04-11T11:55:06.885Z,11.07
2023-04-11T11:57:34.738Z,11.37
2023-04-11T12:00:05.748Z,11.40
2023-04-11T12:02:34.378Z,11.28
2023-04-11T12:05:04.155Z,11.62
2023-04-11T12:07:35.693Z,11.45
2023-04-11T12:10:08.940Z,11.49
2023-04-11T12:12:37.164Z,11.19
2023-04-11T12:15:10.872Z,11.04
2023-04-11T12:17:38.226Z,11.29
2023-04-11T12:20:10.544Z,11.11
2023-04-11T12:22:37.772Z,11.12
2023-04-11T12:25:11.705Z,11.11
2023-04-11T12:27:39.892Z,11.05
2023-04-11T12:30:07.235Z,11.27
2023-04-11T12:32:34.432Z,11.21
2023-04-11T12:35:01.987Z,11.60
2023-04-11T12:37:28.535Z,11.91
2023-04-11T12:39:54.970Z,12.08
2023-04-11T12:42:24.229Z,12.30
2023-04-11T12:44:53.511Z,12.14
2023-04-11T12:47:19.937Z,12.12
2023-04-11T12:49:46.349Z,12.17
2023-04-11T12:52:12.776Z,11.64
2023-04-11T12:54:39.210Z,11.52
2023-04-11T12:57:05.764Z,11.12
2023-04-11T12:59:32.601Z,10.76
2023-04-11T13:01:59.480Z,11.30
2023-04-11T13:04:26.137Z,11.34
2023-04-11T13:06:52.649Z,11.36
2023-04-11T13:09:19.091Z,11.49
2023-04-11T13:11:45.698Z,11.46
2023-04-11T13:14:12.178Z,11.26
2023-04-11T13:16:38.687Z,10.81
2023-04-11T13:19:07.300Z,11.02
2023-04-11T13:21:33.711Z,11.07
2023-04-11T13:24:00.150Z,11.05
2023-04-11T13:26:26.592Z,11.01
2023-04-11T13:28:53.034Z,11.19
2023-04-11T13:31:19.703Z,11.97
2023-04-11T13:33:47.907Z,12.13
2023-04-11T13:36:14.401Z,12.02
2023-04-11T13:38:41.028Z,12.14
2023-04-11T13:41:07.547Z,13.24
2023-04-11T13:43:33.993Z,13.73
2023-04-11T13:46:00.509Z,14.17
2023-04-11T13:48:27.015Z,13.33
2023-04-11T13:50:57.192Z,13.80
2023-04-11T13:53:26.817Z,14.77
2023-04-11T13:55:53.290Z,14.01
2023-04-11T13:58:19.774Z,14.08
2023-04-11T14:00:46.653Z,13.88
2023-04-11T14:03:15.323Z,13.23
2023-04-11T14:05:41.851Z,12.71
2023-04-11T14:08:08.289Z,12.51
2023-04-11T14:10:34.724Z,12.33
2023-04-11T14:13:02.221Z,12.03
2023-04-11T14:15:28.653Z,11.91
2023-04-11T14:17:55.404Z,11.72
2023-04-11T14:20:21.873Z,12.33
2023-04-11T14:22:48.344Z,13.42
2023-04-11T14:25:15.660Z,12.80
2023-04-11T14:27:42.183Z,12.60
2023-04-11T14:30:09.896Z,12.55
2023-04-11T14:32:36.833Z,12.89
2023-04-11T14:35:04.727Z,13.75
2023-04-11T14:37:40.354Z,13.63
2023-04-11T14:40:10.701Z,12.88
2023-04-11T14:42:37.826Z,13.66
2023-04-11T14:45:05.820Z,13.25
2023-04-11T14:47:32.584Z,13.34
2023-04-11T14:49:59.110Z,13.06
2023-04-11T14:52:25.848Z,13.42
2023-04-11T14:54:52.394Z,14.14
2023-04-11T14:57:18.885Z,13.18
2023-04-11T14:59:45.299Z,12.74
2023-04-11T15:02:11.888Z,12.46
2023-04-11T15:04:38.479Z,14.30
2023-04-11T15:07:04.962Z,15.45
2023-04-11T15:09:31.573Z,15.78
2023-04-11T15:11:58.046Z,14.70
2023-04-11T15:14:29.274Z,14.06
2023-04-11T15:16:56.404Z,13.57
2023-04-11T15:19:23.129Z,14.37
2023-04-11T15:21:49.570Z,14.57
2023-04-11T15:24:16.966Z,14.58
2023-04-11T15:26:44.618Z,14.25
2023-04-11T15:29:15.658Z,14.24
2023-04-11T15:31:42.189Z,13.88
2023-04-11T15:34:08.688Z,14.09
2023-04-11T15:36:38.337Z,13.73
2023-04-11T15:39:05.163Z,13.37
2023-04-11T15:41:34.267Z,13.06
2023-04-11T15:44:00.713Z,12.34
2023-04-11T15:46:27.209Z,12.49
2023-04-11T15:48:53.663Z,12.68
2023-04-11T15:51:20.213Z,13.76
2023-04-11T15:53:48.277Z,14.22
2023-04-11T15:56:14.734Z,14.19
2023-04-11T15:58:41.951Z,14.82
2023-04-11T16:01:20.903Z,13.91
2023-04-11T16:03:48.049Z,13.48
2023-04-11T16:06:14.878Z,13.22
2023-04-11T16:08:41.350Z,13.21
2023-04-11T16:11:07.873Z,13.28
2023-04-11T16:13:34.340Z,12.98
2023-04-11T16:16:00.864Z,13.05
2023-04-11T16:18:27.496Z,13.53
2023-04-11T16:20:53.996Z,13.95
2023-04-11T16:23:20.423Z,13.96
2023-04-11T16:25:46.836Z,13.71
2023-04-11T16:28:14.141Z,13.46
2023-04-11T16:30:40.577Z,13.23
2023-04-11T16:33:07.403Z,12.79
2023-04-11T16:35:33.969Z,12.42
2023-04-11T16:38:00.616Z,12.13
2023-04-11T16:40:27.105Z,12.04
2023-04-11T16:42:53.548Z,11.99
2023-04-11T16:45:20.303Z,12.03
2023-04-11T16:47:46.770Z,11.87
2023-04-11T16:50:13.198Z,11.65
2023-04-11T16:52:40.454Z,11.57
2023-04-11T16:55:07.154Z,11.35
2023-04-11T16:57:33.804Z,11.46
2023-04-11T17:00:01.030Z,11.44
2023-04-11T17:02:27.674Z,11.12
2023-04-11T17:04:54.158Z,11.03
2023-04-11T17:07:20.608Z,11.10
2023-04-11T17:09:48.392Z,11.17
2023-04-11T17:12:14.839Z,11.12
2023-04-11T17:14:41.253Z,11.04
2023-04-11T17:17:07.788Z,10.97
2023-04-11T17:19:34.297Z,10.92
2023-04-11T17:22:01.002Z,10.76
2023-04-11T17:24:27.459Z,10.48
2023-04-11T17:26:53.868Z,10.17
2023-04-11T17:29:20.324Z,10.13
2023-04-11T17:31:47.107Z,10.05
2023-04-11T17:34:13.660Z,10.17
2023-04-11T17:36:42.811Z,10.18
2023-04-11T17:39:16.897Z,10.07
2023-04-11T17:41:45.265Z,10.14
2023-04-11T17:44:11.988Z,10.15
2023-04-11T17:46:38.714Z,10.15
2023-04-11T17:49:05.226Z,10.01
2023-04-11T17:51:31.660Z,9.96
2023-04-11T17:53:58.242Z,9.80
2023-04-11T17:56:25.484Z,9.68
2023-04-11T17:58:52.913Z,9.71
2023-04-11T18:01:19.465Z,9.67
2023-04-11T18:03:47.039Z,9.55
2023-04-11T18:06:13.601Z,9.52
2023-04-11T18:11:09.609Z,9.61
2023-04-11T18:13:36.033Z,9.58
2023-04-11T18:16:02.496Z,9.55
2023-04-11T18:18:28.928Z,9.51
2023-04-11T18:20:55.489Z,9.48
2023-04-11T18:23:21.954Z,9.43
2023-04-11T18:25:48.375Z,9.42
2023-04-11T18:28:14.797Z,9.39
2023-04-11T18:30:41.196Z,9.37
2023-04-11T18:33:08.195Z,9.34
2023-04-11T18:35:34.749Z,9.30
2023-04-11T18:38:02.544Z,9.25
2023-04-11T18:40:29.662Z,9.22
2023-04-11T18:42:56.833Z,9.22
2023-04-11T18:45:24.156Z,9.16
2023-04-11T18:47:51.097Z,9.07
2023-04-11T18:50:18.656Z,8.94
2023-04-11T18:52:46.421Z,8.90
2023-04-11T18:55:14.867Z,8.83
2023-04-11T18:57:43.327Z,8.76
2023-04-11T19:00:20.458Z,8.77
2023-04-11T19:02:50.175Z,8.73
2023-04-11T19:05:17.955Z,8.70
2023-04-11T19:07:45.762Z,8.63
2023-04-11T19:10:12.677Z,8.62
2023-04-11T19:12:39.488Z,8.59
2023-04-11T19:15:07.869Z,8.49
2023-04-11T19:17:38.593Z,8.45
2023-04-11T19:20:16.468Z,8.42
2023-04-11T19:22:43.244Z,8.40
2023-04-11T19:25:11.068Z,8.39
2023-04-11T19:27:40.139Z,8.32
2023-04-11T19:30:08.639Z,8.27
2023-04-11T19:32:38.555Z,8.25
2023-04-11T19:35:08.528Z,8.25
2023-04-11T19:37:35.117Z,8.19
2023-04-11T19:40:02.193Z,8.18
2023-04-11T19:42:32.923Z,8.17
2023-04-11T19:44:59.483Z,8.15
2023-04-11T19:47:25.956Z,8.09
2023-04-11T19:49:53.564Z,8.05
2023-04-11T19:52:19.983Z,8.06
2023-04-11T19:54:46.463Z,8.04
2023-04-11T19:57:12.867Z,8.02
2023-04-11T19:59:39.291Z,7.95
2023-04-11T20:02:06.012Z,7.91
2023-04-11T20:04:32.547Z,7.91
2023-04-11T20:07:00.756Z,7.89
2023-04-11T20:09:29.735Z,7.89
2023-04-11T20:11:56.789Z,7.84
2023-04-11T20:14:23.231Z,7.81
2023-04-11T20:16:49.679Z,7.79
2023-04-11T20:19:16.134Z,7.79
2023-04-11T20:21:42.546Z,7.78
2023-04-11T20:24:12.240Z,7.79
2023-04-11T20:26:38.680Z,7.78
2023-04-11T20:29:06.364Z,7.75
2023-04-11T20:31:32.889Z,7.76
2023-04-11T20:33:59.657Z,7.79
2023-04-11T20:36:27.394Z,7.81
2023-04-11T20:38:55.524Z,7.86
2023-04-11T20:41:22.300Z,7.82
2023-04-11T20:43:48.896Z,7.77
2023-04-11T20:46:17.754Z,7.81
2023-04-11T20:48:45.894Z,7.83
2023-04-11T20:51:12.332Z,7.83
2023-04-11T20:53:38.791Z,7.79
2023-04-11T20:56:05.509Z,7.74
2023-04-11T20:58:31.963Z,7.73
2023-04-11T21:00:59.264Z,7.70
2023-04-11T21:03:30.198Z,7.67
2023-04-11T21:05:56.861Z,7.68
2023-04-11T21:08:23.669Z,7.68
2023-04-11T21:10:50.106Z,7.68
2023-04-11T21:13:16.694Z,7.67
2023-04-11T21:15:43.155Z,7.62
2023-04-11T21:18:09.767Z,7.62
2023-04-11T21:20:39.556Z,7.60
2023-04-11T21:23:06.068Z,7.59
2023-04-11T21:25:32.487Z,7.57
2023-04-11T21:27:58.905Z,7.48
2023-04-11T21:30:25.419Z,7.48
2023-04-11T21:32:52.116Z,7.53
2023-04-11T21:35:18.602Z,7.51
2023-04-11T21:37:47.059Z,7.51
2023-04-11T21:40:15.016Z,7.46
2023-04-11T21:42:41.570Z,7.48
2023-04-11T21:45:08.665Z,7.49
2023-04-11T21:47:35.168Z,7.51
2023-04-11T21:50:01.724Z,7.55
2023-04-11T21:52:28.200Z,7.62
2023-04-11T21:54:54.602Z,7.65
2023-04-11T21:57:21.032Z,7.64
2023-04-11T21:59:47.434Z,7.66
2023-04-11T22:02:14.416Z,7.67
2023-04-11T22:04:51.638Z,7.68
2023-04-11T22:07:31.606Z,7.62
2023-04-11T22:10:09.118Z,7.66
2023-04-11T22:12:36.539Z,7.69
2023-04-11T22:15:03.772Z,7.68
2023-04-11T22:17:31.704Z,7.63
2023-04-11T22:19:58.277Z,7.61
2023-04-11T22:22:27.765Z,7.56
2023-04-11T22:24:57.717Z,7.61
2023-04-11T22:27:26.257Z,7.59
2023-04-11T22:29:59.720Z,7.58
2023-04-11T22:32:26.532Z,7.54
2023-04-11T22:34:53.033Z,7.54
2023-04-11T22:37:19.488Z,7.56
2023-04-11T22:39:45.996Z,7.55
2023-04-11T22:42:12.558Z,7.55
2023-04-11T22:44:39.122Z,7.56
2023-04-11T22:47:08.385Z,7.53
2023-04-11T22:49:41.687Z,7.54
2023-04-11T22:52:09.290Z,7.49
2023-04-11T22:54:35.815Z,7.49
2023-04-11T22:57:02.384Z,7.48
2023-04-11T22:59:28.877Z,7.45
2023-04-11T23:01:55.523Z,7.46
2023-04-11T23:04:22.432Z,7.46
2023-04-11T23:06:52.023Z,7.45
2023-04-11T23:09:18.783Z,7.45
2023-04-11T23:11:48.797Z,7.45
2023-04-11T23:14:17.922Z,7.42
2023-04-11T23:16:44.994Z,7.45
2023-04-11T23:19:11.675Z,7.38
2023-04-11T23:21:38.156Z,7.33
2023-04-11T23:24:06.636Z,7.33
2023-04-11T23:26:33.178Z,7.33
2023-04-11T23:29:01.065Z,7.28
2023-04-11T23:31:27.840Z,7.27
2023-04-11T23:33:54.423Z,7.28
2023-04-11T23:36:20.914Z,7.25
2023-04-11T23:38:47.549Z,7.27
2023-04-11T23:41:14.680Z,7.27
2023-04-11T23:43:41.141Z,7.25
2023-04-11T23:46:07.615Z,7.20
2023-04-11T23:48:34.082Z,7.20
2023-04-11T23:51:00.544Z,7.18
2023-04-11T23:53:26.978Z,7.13
2023-04-11T23:55:53.451Z,7.11
2023-04-11T23:58:19.916Z,7.08
